createdAt,value
2016-01-31T00:00:02.933Z,4.53
2016-01-31T00:01:02.910Z,4.6
2016-01-31T00:02:02.865Z,4.58
2016-01-31T00:03:02.853Z,4.73
2016-01-31T00:04:02.809Z,4.62
2016-01-31T00:05:02.781Z,4.62
2016-01-31T00:06:02.752Z,4.6
2016-01-31T00:07:02.739Z,4.63
2016-01-31T00:08:02.695Z,4.78
2016-01-31T00:09:02.667Z,4.67
2016-01-31T00:10:02.655Z,4.62
2016-01-31T00:11:02.611Z,4.66
2016-01-31T00:12:02.583Z,4.71
2016-01-31T00:13:02.553Z,4.71
2016-01-31T00:14:02.530Z,4.78
2016-01-31T00:15:02.503Z,4.74
2016-01-31T00:16:02.473Z,4.77
2016-01-31T00:17:02.443Z,4.86
2016-01-31T00:18:02.415Z,4.9
2016-01-31T00:19:02.402Z,4.86
2016-01-31T00:20:02.362Z,4.86
2016-01-31T00:21:02.317Z,4.89
2016-01-31T00:22:02.288Z,4.96
2016-01-31T00:23:02.275Z,4.92
2016-01-31T00:24:02.247Z,4.93
2016-01-31T00:25:02.219Z,4.87
2016-01-31T00:26:02.174Z,4.8
2016-01-31T00:27:02.177Z,4.75
2016-01-31T00:28:02.118Z,4.9
2016-01-31T00:29:02.102Z,4.87
2016-01-31T00:30:02.074Z,4.78
2016-01-31T00:31:02.048Z,4.78
2016-01-31T00:32:02.019Z,4.8
2016-01-31T00:33:01.990Z,4.82
2016-01-31T00:34:01.962Z,4.78
2016-01-31T00:35:01.933Z,4.77
2016-01-31T00:36:01.905Z,4.78
2016-01-31T00:37:01.877Z,4.73
2016-01-31T00:38:01.848Z,4.82
2016-01-31T00:39:01.820Z,4.73
2016-01-31T00:40:01.811Z,4.75
2016-01-31T00:41:01.766Z,4.82
2016-01-31T00:42:01.722Z,4.77
2016-01-31T00:43:01.710Z,4.8
2016-01-31T00:44:01.682Z,4.77
2016-01-31T00:45:01.638Z,4.77
2016-01-31T00:46:01.618Z,4.78
2016-01-31T00:47:01.590Z,4.82
2016-01-31T00:48:01.562Z,4.77
2016-01-31T00:49:01.522Z,4.8
2016-01-31T00:50:01.509Z,4.77
2016-01-31T00:51:01.499Z,4.77
2016-01-31T00:52:01.440Z,4.75
2016-01-31T00:53:01.427Z,4.8
2016-01-31T00:54:01.398Z,4.77
2016-01-31T00:55:01.355Z,4.78
2016-01-31T00:56:01.327Z,4.77
2016-01-31T00:57:01.298Z,4.75
2016-01-31T00:58:01.285Z,4.77
2016-01-31T00:59:01.257Z,4.8
2016-01-31T01:00:01.232Z,4.86
2016-01-31T01:01:01.188Z,4.78
2016-01-31T01:02:01.177Z,4.89
2016-01-31T01:03:01.132Z,4.78
2016-01-31T01:04:01.128Z,4.8
2016-01-31T01:05:01.100Z,4.78
2016-01-31T01:06:01.041Z,4.73
2016-01-31T01:07:01.012Z,4.8
2016-01-31T01:08:01.000Z,4.82
2016-01-31T01:09:00.955Z,4.87
2016-01-31T01:10:00.935Z,4.8
2016-01-31T01:11:00.921Z,4.84
2016-01-31T01:12:00.878Z,4.78
2016-01-31T01:13:00.848Z,4.86
2016-01-31T01:14:00.836Z,4.84
2016-01-31T01:15:00.792Z,4.82
2016-01-31T01:16:00.764Z,4.86
2016-01-31T01:17:00.734Z,4.82
2016-01-31T01:18:00.706Z,4.82
2016-01-31T01:19:00.679Z,4.82
2016-01-31T01:20:00.650Z,4.77
2016-01-31T01:21:00.621Z,4.84
2016-01-31T01:22:00.576Z,4.8
2016-01-31T01:23:00.565Z,4.8
2016-01-31T01:24:00.536Z,4.87
2016-01-31T01:25:00.508Z,4.78
2016-01-31T01:26:00.480Z,4.84
2016-01-31T01:27:00.467Z,4.84
2016-01-31T01:28:00.425Z,4.82
2016-01-31T01:29:00.380Z,4.82
2016-01-31T01:30:00.352Z,4.78
2016-01-31T01:31:00.339Z,4.78
2016-01-31T01:32:00.327Z,4.73
2016-01-31T01:33:00.282Z,4.75
2016-01-31T01:34:00.236Z,4.82
2016-01-31T01:35:00.209Z,4.82
2016-01-31T01:36:00.196Z,4.8
2016-01-31T01:37:00.151Z,4.78
2016-01-31T01:38:00.139Z,4.8
2016-01-31T01:39:00.112Z,4.8
2016-01-31T01:40:00.083Z,4.75
2016-01-31T01:41:00.054Z,4.73
2016-01-31T01:42:00.026Z,4.82
2016-01-31T01:42:59.983Z,4.78
2016-01-31T01:43:59.969Z,4.86
2016-01-31T01:44:59.941Z,4.74
2016-01-31T01:45:59.901Z,4.71
2016-01-31T01:46:59.873Z,4.73
2016-01-31T01:47:59.845Z,4.78
2016-01-31T01:48:59.816Z,4.78
2016-01-31T01:49:59.788Z,4.78
2016-01-31T01:50:59.759Z,4.74
2016-01-31T01:51:59.746Z,4.8
2016-01-31T01:52:59.718Z,4.7
2016-01-31T01:53:59.674Z,4.75
2016-01-31T01:54:59.645Z,4.75
2016-01-31T01:55:59.632Z,4.77
2016-01-31T01:56:59.604Z,4.84
2016-01-31T01:57:59.562Z,4.78
2016-01-31T01:58:59.534Z,4.71
2016-01-31T01:59:59.505Z,4.82
2016-01-31T02:00:59.476Z,4.82
2016-01-31T02:01:59.464Z,4.9
2016-01-31T02:02:59.436Z,4.8
2016-01-31T02:03:59.392Z,4.8
2016-01-31T02:04:59.364Z,4.75
2016-01-31T02:05:59.352Z,4.77
2016-01-31T02:06:59.323Z,4.82
2016-01-31T02:07:59.295Z,4.84
2016-01-31T02:08:59.298Z,4.75
2016-01-31T02:09:59.223Z,4.71
2016-01-31T02:10:59.194Z,4.77
2016-01-31T02:11:59.165Z,4.87
2016-01-31T02:12:59.137Z,4.86
2016-01-31T02:13:59.109Z,4.77
2016-01-31T02:14:59.080Z,4.86
2016-01-31T02:15:59.051Z,4.71
2016-01-31T02:16:59.027Z,4.73
2016-01-31T02:17:59.002Z,4.87
2016-01-31T02:18:58.973Z,4.74
2016-01-31T02:19:58.960Z,4.84
2016-01-31T02:20:58.963Z,4.82
2016-01-31T02:21:58.889Z,4.77
2016-01-31T02:22:58.859Z,4.8
2016-01-31T02:23:58.831Z,4.84
2016-01-31T02:24:58.803Z,4.75
2016-01-31T02:25:58.775Z,4.84
2016-01-31T02:26:58.750Z,4.77
2016-01-31T02:27:58.722Z,4.8
2016-01-31T02:28:58.693Z,4.82
2016-01-31T02:29:58.665Z,4.8
2016-01-31T02:30:58.636Z,4.84
2016-01-31T02:31:58.608Z,4.82
2016-01-31T02:32:58.579Z,4.77
2016-01-31T02:33:58.552Z,4.84
2016-01-31T02:34:58.522Z,4.77
2016-01-31T02:35:58.479Z,4.75
2016-01-31T02:36:58.465Z,4.77
2016-01-31T02:37:58.438Z,4.84
2016-01-31T02:38:58.408Z,4.89
2016-01-31T02:39:58.379Z,4.8
2016-01-31T02:40:58.351Z,4.77
2016-01-31T02:41:58.323Z,4.86
2016-01-31T02:42:58.291Z,4.8
2016-01-31T02:43:58.263Z,4.8
2016-01-31T02:44:58.235Z,4.82
2016-01-31T02:45:58.255Z,4.75
2016-01-31T02:46:58.164Z,4.8
2016-01-31T02:47:58.151Z,4.78
2016-01-31T02:48:58.125Z,4.78
2016-01-31T02:49:58.097Z,4.8
2016-01-31T02:50:58.053Z,4.8
2016-01-31T02:51:58.040Z,4.82
2016-01-31T02:52:58.011Z,4.78
2016-01-31T02:53:57.983Z,4.8
2016-01-31T02:54:57.955Z,4.78
2016-01-31T02:55:57.927Z,4.87
2016-01-31T02:56:57.883Z,4.73
2016-01-31T02:57:57.869Z,4.84
2016-01-31T02:58:57.858Z,4.87
2016-01-31T02:59:57.814Z,4.82
2016-01-31T03:00:57.789Z,4.86
2016-01-31T03:01:57.759Z,4.82
2016-01-31T03:02:57.716Z,4.78
2016-01-31T03:03:57.703Z,4.82
2016-01-31T03:04:57.799Z,4.78
2016-01-31T03:05:57.631Z,4.87
2016-01-31T03:06:57.618Z,4.7
2016-01-31T03:07:57.573Z,4.74
2016-01-31T03:08:57.545Z,4.82
2016-01-31T03:09:57.535Z,4.75
2016-01-31T03:10:57.506Z,4.87
2016-01-31T03:11:57.478Z,4.75
2016-01-31T03:12:57.450Z,4.77
2016-01-31T03:13:57.412Z,4.78
2016-01-31T03:14:57.398Z,4.86
2016-01-31T03:15:57.354Z,4.77
2016-01-31T03:16:57.326Z,4.77
2016-01-31T03:17:57.313Z,4.74
2016-01-31T03:18:57.284Z,4.78
2016-01-31T03:19:57.241Z,4.77
2016-01-31T03:20:57.219Z,4.82
2016-01-31T03:21:57.190Z,4.86
2016-01-31T03:22:57.161Z,4.78
2016-01-31T03:23:57.133Z,4.8
2016-01-31T03:24:57.089Z,4.77
2016-01-31T03:25:57.061Z,4.77
2016-01-31T03:26:57.047Z,4.82
2016-01-31T03:27:57.019Z,4.77
2016-01-31T03:28:56.975Z,4.8
2016-01-31T03:29:56.947Z,4.82
2016-01-31T03:30:56.935Z,4.78
2016-01-31T03:31:56.906Z,4.82
2016-01-31T03:32:56.862Z,4.87
2016-01-31T03:33:56.850Z,4.78
2016-01-31T03:34:56.822Z,4.78
2016-01-31T03:35:56.793Z,4.84
2016-01-31T03:36:56.764Z,4.78
2016-01-31T03:37:56.722Z,4.8
2016-01-31T03:38:56.709Z,4.8
2016-01-31T03:39:56.681Z,4.77
2016-01-31T03:40:56.637Z,4.84
2016-01-31T03:41:56.625Z,4.82
2016-01-31T03:42:56.596Z,4.77
2016-01-31T03:43:56.568Z,4.77
2016-01-31T03:44:56.526Z,4.82
2016-01-31T03:45:56.498Z,4.82
2016-01-31T03:46:56.469Z,4.86
2016-01-31T03:47:56.441Z,4.75
2016-01-31T03:48:56.414Z,4.82
2016-01-31T03:49:56.385Z,4.75
2016-01-31T03:50:56.361Z,4.82
2016-01-31T03:51:56.350Z,4.82
2016-01-31T03:52:56.306Z,4.87
2016-01-31T03:53:56.293Z,4.78
2016-01-31T03:54:56.249Z,4.8
2016-01-31T03:55:56.220Z,4.78
2016-01-31T03:56:56.192Z,4.82
2016-01-31T03:57:56.163Z,4.8
2016-01-31T03:58:56.136Z,4.84
2016-01-31T03:59:56.107Z,4.87
2016-01-31T04:00:56.078Z,4.89
2016-01-31T04:01:56.050Z,4.8
2016-01-31T04:02:56.021Z,4.8
2016-01-31T04:03:55.993Z,4.77
2016-01-31T04:04:55.981Z,4.77
2016-01-31T04:05:55.937Z,4.77
2016-01-31T04:06:55.908Z,4.82
2016-01-31T04:07:55.894Z,4.75
2016-01-31T04:08:55.852Z,4.78
2016-01-31T04:09:55.823Z,4.86
2016-01-31T04:10:55.810Z,4.73
2016-01-31T04:11:55.782Z,4.78
2016-01-31T04:12:55.740Z,4.82
2016-01-31T04:13:55.711Z,4.74
2016-01-31T04:14:55.684Z,4.71
2016-01-31T04:15:55.655Z,4.71
2016-01-31T04:16:55.642Z,4.71
2016-01-31T04:17:55.601Z,4.71
2016-01-31T04:18:55.573Z,4.68
2016-01-31T04:19:55.550Z,4.7
2016-01-31T04:20:55.522Z,4.74
2016-01-31T04:21:55.494Z,4.62
2016-01-31T04:22:55.465Z,4.67
2016-01-31T04:23:55.424Z,4.66
2016-01-31T04:24:55.396Z,4.7
2016-01-31T04:25:55.383Z,4.71
2016-01-31T04:26:55.352Z,4.63
2016-01-31T04:27:55.308Z,4.7
2016-01-31T04:28:55.280Z,4.71
2016-01-31T04:29:55.268Z,4.67
2016-01-31T04:30:55.223Z,4.58
2016-01-31T04:31:55.195Z,4.63
2016-01-31T04:32:55.168Z,4.56
2016-01-31T04:33:55.187Z,4.58
2016-01-31T04:34:55.112Z,4.58
2016-01-31T04:35:55.083Z,4.62
2016-01-31T04:36:55.055Z,4.62
2016-01-31T04:37:55.027Z,4.59
2016-01-31T04:38:54.998Z,4.67
2016-01-31T04:39:54.970Z,4.6
2016-01-31T04:40:54.940Z,4.53
2016-01-31T04:41:54.899Z,4.55
2016-01-31T04:42:54.869Z,4.58
2016-01-31T04:43:54.844Z,4.6
2016-01-31T04:44:54.848Z,4.6
2016-01-31T04:45:54.787Z,4.6
2016-01-31T04:46:54.759Z,4.62
2016-01-31T04:47:54.730Z,4.62
2016-01-31T04:48:54.718Z,4.53
2016-01-31T04:49:54.690Z,4.55
2016-01-31T04:50:54.662Z,4.62
2016-01-31T04:51:54.617Z,4.56
2016-01-31T04:52:54.590Z,4.62
2016-01-31T04:53:54.561Z,4.52
2016-01-31T04:54:54.532Z,4.49
2016-01-31T04:55:54.504Z,4.59
2016-01-31T04:56:54.477Z,4.6
2016-01-31T04:57:54.448Z,4.58
2016-01-31T04:58:54.420Z,4.49
2016-01-31T04:59:54.422Z,4.5
2016-01-31T05:00:54.364Z,4.55
2016-01-31T05:01:54.335Z,4.55
2016-01-31T05:02:54.306Z,4.53
2016-01-31T05:03:54.279Z,4.55
2016-01-31T05:04:54.282Z,4.52
2016-01-31T05:05:54.221Z,4.56
2016-01-31T05:06:54.193Z,4.48
2016-01-31T05:07:54.165Z,4.58
2016-01-31T05:08:54.152Z,4.58
2016-01-31T05:09:54.107Z,4.44
2016-01-31T05:10:54.079Z,4.52
2016-01-31T05:11:54.052Z,4.53
2016-01-31T05:12:54.023Z,4.55
2016-01-31T05:13:53.979Z,4.5
2016-01-31T05:14:53.949Z,4.52
2016-01-31T05:15:53.937Z,4.49
2016-01-31T05:16:53.909Z,4.52
2016-01-31T05:17:53.895Z,4.49
2016-01-31T05:18:53.835Z,4.52
2016-01-31T05:19:53.823Z,4.49
2016-01-31T05:20:53.796Z,4.45
2016-01-31T05:21:53.783Z,4.49
2016-01-31T05:22:53.723Z,4.42
2016-01-31T05:23:53.711Z,4.44
2016-01-31T05:24:53.682Z,4.44
2016-01-31T05:25:53.654Z,4.41
2016-01-31T05:26:53.609Z,4.49
2016-01-31T05:27:53.582Z,4.41
2016-01-31T05:28:53.554Z,4.4
2016-01-31T05:29:53.540Z,4.49
2016-01-31T05:30:53.496Z,4.5
2016-01-31T05:31:53.470Z,4.4
2016-01-31T05:32:53.442Z,4.41
2016-01-31T05:33:53.445Z,4.38
2016-01-31T05:34:53.369Z,4.45
2016-01-31T05:35:53.373Z,4.44
2016-01-31T05:36:53.330Z,4.45
2016-01-31T05:37:53.300Z,4.49
2016-01-31T05:38:53.271Z,4.38
2016-01-31T05:39:53.243Z,4.48
2016-01-31T05:40:53.217Z,4.4
2016-01-31T05:41:53.187Z,4.4
2016-01-31T05:42:53.159Z,4.4
2016-01-31T05:43:53.132Z,4.45
2016-01-31T05:44:53.087Z,4.41
2016-01-31T05:45:53.074Z,4.52
2016-01-31T05:46:53.048Z,4.42
2016-01-31T05:47:53.004Z,4.41
2016-01-31T05:48:52.992Z,4.44
2016-01-31T05:49:52.947Z,4.42
2016-01-31T05:50:52.950Z,4.38
2016-01-31T05:51:52.891Z,4.41
2016-01-31T05:52:52.862Z,4.42
2016-01-31T05:53:52.834Z,4.45
2016-01-31T05:54:52.805Z,4.5
2016-01-31T05:55:52.778Z,4.48
2016-01-31T05:56:52.749Z,4.53
2016-01-31T05:57:52.736Z,4.5
2016-01-31T05:58:52.691Z,4.56
2016-01-31T05:59:52.664Z,4.52
2016-01-31T06:00:52.638Z,4.53
2016-01-31T06:01:52.625Z,4.55
2016-01-31T06:02:52.596Z,4.5
2016-01-31T06:03:52.552Z,4.52
2016-01-31T06:04:52.526Z,4.52
2016-01-31T06:05:52.498Z,4.56
2016-01-31T06:06:52.470Z,4.56
2016-01-31T06:07:52.442Z,4.52
2016-01-31T06:08:52.397Z,4.53
2016-01-31T06:09:52.385Z,4.55
2016-01-31T06:10:52.340Z,4.55
2016-01-31T06:11:52.325Z,4.5
2016-01-31T06:12:52.297Z,4.53
2016-01-31T06:13:52.238Z,4.53
2016-01-31T06:14:52.194Z,4.55
2016-01-31T06:15:52.150Z,4.5
2016-01-31T06:16:52.388Z,4.55
2016-01-31T06:17:52.078Z,4.56
2016-01-31T06:18:52.030Z,4.52
2016-01-31T06:19:51.996Z,4.53
2016-01-31T06:20:51.963Z,4.52
2016-01-31T06:21:51.944Z,4.62
2016-01-31T06:22:51.896Z,4.67
2016-01-31T06:23:51.864Z,4.63
2016-01-31T06:24:51.836Z,4.63
2016-01-31T06:25:51.821Z,4.6
2016-01-31T06:26:51.777Z,4.62
2016-01-31T06:27:51.747Z,4.67
2016-01-31T06:28:51.717Z,4.53
2016-01-31T06:29:51.703Z,4.56
2016-01-31T06:30:51.660Z,4.73
2016-01-31T06:31:51.630Z,4.7
2016-01-31T06:32:51.602Z,4.63
2016-01-31T06:33:51.588Z,4.73
2016-01-31T06:34:51.543Z,4.66
2016-01-31T06:35:51.516Z,4.62
2016-01-31T06:36:51.488Z,4.68
2016-01-31T06:37:51.459Z,4.78
2016-01-31T06:38:51.430Z,4.73
2016-01-31T06:39:51.402Z,4.74
2016-01-31T06:40:51.374Z,4.75
2016-01-31T06:41:51.361Z,4.73
2016-01-31T06:42:51.316Z,4.71
2016-01-31T06:43:51.307Z,4.7
2016-01-31T06:44:51.248Z,4.78
2016-01-31T06:45:51.235Z,4.73
2016-01-31T06:46:51.191Z,4.82
2016-01-31T06:47:51.179Z,4.8
2016-01-31T06:48:51.134Z,4.78
2016-01-31T06:49:51.122Z,4.73
2016-01-31T06:50:51.093Z,4.8
2016-01-31T06:51:51.064Z,4.77
2016-01-31T06:52:51.035Z,4.82
2016-01-31T06:53:51.007Z,4.75
2016-01-31T06:54:50.978Z,4.87
2016-01-31T06:55:50.808Z,4.82
2016-01-31T06:56:50.921Z,4.92
2016-01-31T06:57:50.893Z,4.89
2016-01-31T06:58:50.864Z,4.9
2016-01-31T06:59:50.823Z,4.87
2016-01-31T07:00:50.811Z,4.86
2016-01-31T07:01:50.782Z,4.87
2016-01-31T07:02:50.753Z,4.92
2016-01-31T07:03:50.726Z,4.89
2016-01-31T07:04:50.698Z,4.96
2016-01-31T07:05:50.668Z,4.96
2016-01-31T07:06:50.640Z,4.87
2016-01-31T07:07:50.612Z,4.93
2016-01-31T07:08:50.568Z,4.96
2016-01-31T07:09:50.554Z,4.97
2016-01-31T07:10:50.528Z,4.93
2016-01-31T07:11:50.500Z,5.05
2016-01-31T07:12:50.455Z,4.94
2016-01-31T07:13:50.427Z,4.97
2016-01-31T07:14:50.418Z,5.05
2016-01-31T07:15:50.380Z,5.04
2016-01-31T07:16:50.353Z,5.02
2016-01-31T07:17:50.325Z,4.99
2016-01-31T07:18:50.295Z,5.02
2016-01-31T07:19:50.267Z,5.04
2016-01-31T07:20:50.239Z,5.05
2016-01-31T07:21:50.210Z,5.12
2016-01-31T07:22:50.181Z,5.08
2016-01-31T07:23:50.154Z,5.04
2016-01-31T07:24:50.140Z,5.07
2016-01-31T07:25:50.112Z,5.02
2016-01-31T07:26:50.084Z,5.02
2016-01-31T07:27:50.056Z,5.04
2016-01-31T07:28:50.027Z,5.1
2016-01-31T07:29:49.986Z,5.04
2016-01-31T07:30:49.958Z,5.05
2016-01-31T07:31:49.945Z,5.07
2016-01-31T07:32:49.901Z,5.08
2016-01-31T07:33:49.871Z,5.15
2016-01-31T07:34:49.845Z,5.14
2016-01-31T07:35:49.832Z,5.12
2016-01-31T07:36:49.820Z,5.14
2016-01-31T07:37:49.759Z,5.15
2016-01-31T07:38:49.733Z,5.23
2016-01-31T07:39:49.719Z,5.25
2016-01-31T07:40:49.688Z,5.21
2016-01-31T07:41:49.643Z,5.25
2016-01-31T07:42:49.616Z,5.28
2016-01-31T07:43:49.592Z,5.23
2016-01-31T07:44:49.578Z,5.25
2016-01-31T07:45:49.535Z,5.21
2016-01-31T07:46:49.521Z,5.28
2016-01-31T07:47:49.495Z,5.33
2016-01-31T07:48:49.450Z,5.29
2016-01-31T07:49:49.422Z,5.28
2016-01-31T07:50:49.394Z,5.23
2016-01-31T07:51:49.381Z,5.3
2016-01-31T07:52:49.353Z,5.29
2016-01-31T07:53:49.324Z,5.29
2016-01-31T07:54:49.296Z,5.33
2016-01-31T07:55:49.267Z,5.39
2016-01-31T07:56:49.254Z,5.39
2016-01-31T07:57:49.210Z,5.39
2016-01-31T07:58:49.183Z,5.39
2016-01-31T07:59:49.154Z,5.39
2016-01-31T08:00:49.125Z,5.47
2016-01-31T08:01:49.097Z,5.43
2016-01-31T08:02:49.070Z,5.47
2016-01-31T08:03:49.040Z,5.47
2016-01-31T08:04:49.012Z,5.46
2016-01-31T08:05:48.999Z,5.38
2016-01-31T08:06:48.955Z,5.48
2016-01-31T08:07:48.943Z,5.53
2016-01-31T08:08:48.899Z,5.5
2016-01-31T08:09:48.886Z,5.54
2016-01-31T08:10:48.841Z,5.51
2016-01-31T08:11:48.829Z,5.56
2016-01-31T08:12:48.785Z,5.62
2016-01-31T08:13:48.771Z,5.61
2016-01-31T08:14:48.743Z,5.51
2016-01-31T08:15:48.715Z,5.62
2016-01-31T08:16:48.686Z,5.65
2016-01-31T08:17:48.655Z,5.57
2016-01-31T08:18:48.628Z,5.66
2016-01-31T08:19:48.630Z,5.68
2016-01-31T08:20:48.571Z,5.64
2016-01-31T08:21:48.541Z,5.66
2016-01-31T08:22:48.530Z,5.68
2016-01-31T08:23:48.485Z,5.68
2016-01-31T08:24:48.472Z,5.71
2016-01-31T08:25:48.444Z,5.68
2016-01-31T08:26:48.416Z,5.69
2016-01-31T08:27:48.387Z,5.71
2016-01-31T08:28:48.359Z,5.71
2016-01-31T08:29:48.331Z,5.76
2016-01-31T08:30:48.302Z,5.69
2016-01-31T08:31:48.274Z,5.72
2016-01-31T08:32:48.262Z,5.89
2016-01-31T08:33:48.218Z,5.84
2016-01-31T08:34:48.205Z,5.79
2016-01-31T08:35:48.177Z,5.84
2016-01-31T08:36:48.149Z,5.8
2016-01-31T08:37:48.105Z,5.89
2016-01-31T08:38:48.092Z,5.84
2016-01-31T08:39:48.110Z,5.84
2016-01-31T08:40:48.035Z,5.87
2016-01-31T08:41:48.038Z,5.89
2016-01-31T08:42:47.997Z,5.9
2016-01-31T08:43:48.000Z,5.98
2016-01-31T08:44:47.924Z,5.98
2016-01-31T08:45:47.895Z,5.93
2016-01-31T08:46:47.917Z,5.89
2016-01-31T08:47:47.849Z,6.01
2016-01-31T08:48:47.821Z,6.02
2016-01-31T08:49:47.793Z,5.98
2016-01-31T08:50:47.764Z,6.07
2016-01-31T08:51:47.736Z,6.09
2016-01-31T08:52:47.724Z,6.05
2016-01-31T08:53:47.696Z,6.04
2016-01-31T08:54:47.651Z,6.05
2016-01-31T08:55:47.638Z,6.08
2016-01-31T08:56:47.607Z,6.02
2016-01-31T08:57:47.578Z,6.07
2016-01-31T08:58:47.550Z,6.16
2016-01-31T08:59:47.521Z,6.07
2016-01-31T09:00:47.508Z,6.08
2016-01-31T09:01:47.465Z,6.12
2016-01-31T09:02:47.469Z,6.07
2016-01-31T09:03:47.675Z,6.11
2016-01-31T09:04:47.397Z,6.16
2016-01-31T09:05:47.367Z,6.27
2016-01-31T09:06:47.341Z,6.35
2016-01-31T09:07:47.313Z,6.27
2016-01-31T09:08:47.300Z,6.28
2016-01-31T09:09:47.271Z,6.3
2016-01-31T09:10:47.244Z,6.3
2016-01-31T09:11:47.215Z,6.26
2016-01-31T09:12:47.171Z,6.26
2016-01-31T09:13:47.145Z,6.31
2016-01-31T09:14:47.148Z,6.33
2016-01-31T09:15:47.103Z,6.33
2016-01-31T09:16:47.075Z,6.36
2016-01-31T09:17:47.049Z,6.35
2016-01-31T09:18:47.021Z,6.35
2016-01-31T09:19:47.013Z,6.27
2016-01-31T09:20:46.969Z,6.31
2016-01-31T09:21:46.941Z,6.31
2016-01-31T09:22:46.928Z,6.28
2016-01-31T09:23:46.883Z,6.3
2016-01-31T09:24:46.871Z,6.39
2016-01-31T09:25:46.873Z,6.41
2016-01-31T09:26:46.814Z,6.38
2016-01-31T09:27:46.786Z,6.41
2016-01-31T09:28:46.772Z,6.45
2016-01-31T09:29:46.744Z,6.52
2016-01-31T09:30:46.717Z,6.49
2016-01-31T09:31:46.688Z,6.48
2016-01-31T09:32:46.659Z,6.45
2016-01-31T09:33:46.631Z,6.48
2016-01-31T09:34:46.602Z,6.49
2016-01-31T09:35:46.574Z,6.54
2016-01-31T09:36:46.562Z,6.46
2016-01-31T09:37:46.534Z,6.49
2016-01-31T09:38:46.506Z,6.45
2016-01-31T09:39:46.478Z,6.51
2016-01-31T09:40:46.433Z,6.59
2016-01-31T09:41:46.420Z,6.6
2016-01-31T09:42:46.392Z,6.64
2016-01-31T09:43:46.368Z,6.64
2016-01-31T09:44:46.340Z,6.63
2016-01-31T09:45:46.326Z,6.66
2016-01-31T09:46:46.298Z,6.6
2016-01-31T09:47:46.277Z,6.69
2016-01-31T09:48:46.252Z,6.69
2016-01-31T09:49:46.224Z,6.63
2016-01-31T09:50:46.181Z,6.66
2016-01-31T09:51:46.152Z,6.69
2016-01-31T09:52:46.139Z,6.74
2016-01-31T09:53:46.141Z,6.74
2016-01-31T09:54:46.083Z,6.7
2016-01-31T09:55:46.054Z,6.7
2016-01-31T09:56:46.041Z,6.72
2016-01-31T09:57:45.995Z,6.81
2016-01-31T09:58:45.983Z,6.69
2016-01-31T09:59:45.955Z,6.78
2016-01-31T10:00:45.941Z,6.78
2016-01-31T10:01:45.896Z,6.69
2016-01-31T10:02:45.885Z,6.77
2016-01-31T10:03:45.855Z,6.79
2016-01-31T10:04:45.812Z,6.77
2016-01-31T10:05:45.800Z,6.78
2016-01-31T10:06:45.772Z,6.78
2016-01-31T10:07:45.743Z,6.72
2016-01-31T10:08:45.730Z,6.85
2016-01-31T10:09:45.702Z,6.77
2016-01-31T10:10:45.661Z,6.75
2016-01-31T10:11:45.632Z,6.81
2016-01-31T10:12:45.620Z,6.88
2016-01-31T10:13:45.607Z,6.87
2016-01-31T10:14:45.563Z,6.92
2016-01-31T10:15:45.551Z,6.88
2016-01-31T10:16:45.521Z,6.89
2016-01-31T10:17:45.527Z,7
2016-01-31T10:18:45.467Z,6.97
2016-01-31T10:19:45.438Z,6.92
2016-01-31T10:20:45.410Z,6.97
2016-01-31T10:21:45.401Z,6.95
2016-01-31T10:22:45.371Z,7.03
2016-01-31T10:23:45.343Z,7.11
2016-01-31T10:24:45.330Z,7.1
2016-01-31T10:25:45.318Z,7.11
2016-01-31T10:26:45.258Z,7.1
2016-01-31T10:27:45.230Z,7.1
2016-01-31T10:28:45.217Z,7.2
2016-01-31T10:29:45.188Z,7.18
2016-01-31T10:30:45.160Z,7.17
2016-01-31T10:31:45.147Z,7.2
2016-01-31T10:32:45.118Z,7.29
2016-01-31T10:33:45.105Z,7.28
2016-01-31T10:34:45.078Z,7.23
2016-01-31T10:35:45.034Z,7.2
2016-01-31T10:36:45.005Z,7.21
2016-01-31T10:37:44.992Z,7.24
2016-01-31T10:38:44.963Z,7.33
2016-01-31T10:39:44.935Z,7.25
2016-01-31T10:40:44.922Z,7.28
2016-01-31T10:41:44.910Z,7.32
2016-01-31T10:42:44.866Z,7.32
2016-01-31T10:43:44.852Z,7.36
2016-01-31T10:44:44.808Z,7.4
2016-01-31T10:45:44.784Z,7.47
2016-01-31T10:46:44.770Z,7.45
2016-01-31T10:47:44.742Z,7.43
2016-01-31T10:48:44.713Z,7.51
2016-01-31T10:49:44.700Z,7.47
2016-01-31T10:50:44.675Z,7.53
2016-01-31T10:51:44.647Z,7.54
2016-01-31T10:52:44.617Z,7.53
2016-01-31T10:53:44.605Z,7.51
2016-01-31T10:54:44.579Z,7.63
2016-01-31T10:55:44.550Z,7.56
2016-01-31T10:56:44.522Z,7.6
2016-01-31T10:57:44.493Z,7.67
2016-01-31T10:58:44.479Z,7.61
2016-01-31T10:59:44.451Z,7.63
2016-01-31T11:00:44.422Z,7.73
2016-01-31T11:01:44.397Z,7.61
2016-01-31T11:02:44.368Z,7.58
2016-01-31T11:03:44.355Z,7.69
2016-01-31T11:04:44.327Z,7.75
2016-01-31T11:05:44.300Z,7.61
2016-01-31T11:06:44.287Z,7.61
2016-01-31T11:07:44.259Z,7.58
2016-01-31T11:08:44.230Z,7.63
2016-01-31T11:09:44.205Z,7.66
2016-01-31T11:10:44.177Z,7.61
2016-01-31T11:11:44.163Z,7.61
2016-01-31T11:12:44.135Z,7.58
2016-01-31T11:13:44.122Z,7.69
2016-01-31T11:14:44.082Z,7.79
2016-01-31T11:15:44.070Z,7.63
2016-01-31T11:16:44.042Z,7.66
2016-01-31T11:17:44.012Z,7.75
2016-01-31T11:18:43.988Z,7.76
2016-01-31T11:19:43.975Z,7.69
2016-01-31T11:20:43.946Z,7.75
2016-01-31T11:21:43.949Z,7.73
2016-01-31T11:22:43.890Z,7.75
2016-01-31T11:23:43.860Z,7.69
2016-01-31T11:24:43.848Z,7.73
2016-01-31T11:25:43.835Z,7.77
2016-01-31T11:26:43.790Z,7.87
2016-01-31T11:27:43.762Z,7.97
2016-01-31T11:28:43.828Z,7.93
2016-01-31T11:29:43.721Z,8
2016-01-31T11:30:43.709Z,7.95
2016-01-31T11:31:43.680Z,8
2016-01-31T11:32:43.651Z,8
2016-01-31T11:33:43.623Z,8.06
2016-01-31T11:34:43.611Z,7.97
2016-01-31T11:35:43.583Z,7.97
2016-01-31T11:36:43.569Z,8.08
2016-01-31T11:37:43.541Z,8.06
2016-01-31T11:38:43.528Z,8.08
2016-01-31T11:39:43.499Z,8.08
2016-01-31T11:40:43.471Z,8.05
2016-01-31T11:41:43.443Z,8.05
2016-01-31T11:42:43.414Z,8.09
2016-01-31T11:43:43.386Z,8.12
2016-01-31T11:44:43.216Z,8
2016-01-31T11:45:43.361Z,8.01
2016-01-31T11:46:43.317Z,8.05
2016-01-31T11:47:43.304Z,8.09
2016-01-31T11:48:43.275Z,8.13
2016-01-31T11:49:43.274Z,8.12
2016-01-31T11:50:43.229Z,8.1
2016-01-31T11:51:43.205Z,8.05
2016-01-31T11:52:43.177Z,8.13
2016-01-31T11:53:43.164Z,8.13
2016-01-31T11:54:43.137Z,8.15
2016-01-31T11:55:43.124Z,8.15
2016-01-31T11:56:43.093Z,8.13
2016-01-31T11:57:43.080Z,8.13
2016-01-31T11:58:43.040Z,8.19
2016-01-31T11:59:43.012Z,8.27
2016-01-31T12:00:43.000Z,8.23
2016-01-31T12:01:42.971Z,8.18
2016-01-31T12:02:42.943Z,8.18
2016-01-31T12:03:42.930Z,8.24
2016-01-31T12:04:42.902Z,8.24
2016-01-31T12:05:42.874Z,8.28
2016-01-31T12:06:42.846Z,8.3
2016-01-31T12:07:42.849Z,8.3
2016-01-31T12:08:42.820Z,8.28
2016-01-31T12:09:42.796Z,8.3
2016-01-31T12:10:42.768Z,8.34
2016-01-31T12:11:42.739Z,8.44
2016-01-31T12:12:42.711Z,8.44
2016-01-31T12:13:42.685Z,8.42
2016-01-31T12:14:42.687Z,8.33
2016-01-31T12:15:42.659Z,8.44
2016-01-31T12:16:42.630Z,8.44
2016-01-31T12:17:42.601Z,8.41
2016-01-31T12:18:42.578Z,8.42
2016-01-31T12:19:42.550Z,8.44
2016-01-31T12:20:42.552Z,8.46
2016-01-31T12:21:42.523Z,8.45
2016-01-31T12:22:42.512Z,8.53
2016-01-31T12:23:42.467Z,8.52
2016-01-31T12:24:42.439Z,8.46
2016-01-31T12:25:42.409Z,8.42
2016-01-31T12:26:42.397Z,8.44
2016-01-31T12:27:42.371Z,8.45
2016-01-31T12:28:42.359Z,8.46
2016-01-31T12:29:42.332Z,8.46
2016-01-31T12:30:42.303Z,8.46
2016-01-31T12:31:42.275Z,8.55
2016-01-31T12:32:42.247Z,8.55
2016-01-31T12:33:42.220Z,8.56
2016-01-31T12:34:42.333Z,8.6
2016-01-31T12:35:42.195Z,8.56
2016-01-31T12:36:42.166Z,8.55
2016-01-31T12:37:42.138Z,8.58
2016-01-31T12:38:42.126Z,8.6
2016-01-31T12:39:42.409Z,8.56
2016-01-31T12:40:42.068Z,8.53
2016-01-31T12:41:42.040Z,8.55
2016-01-31T12:42:42.031Z,8.56
2016-01-31T12:43:42.002Z,8.42
2016-01-31T12:44:41.974Z,8.46
2016-01-31T12:45:42.008Z,8.52
2016-01-31T12:46:41.935Z,8.38
2016-01-31T12:47:41.910Z,8.38
2016-01-31T12:48:41.881Z,8.31
2016-01-31T12:49:41.855Z,8.31
2016-01-31T12:50:41.843Z,8.45
2016-01-31T12:51:41.813Z,8.33
2016-01-31T12:52:41.801Z,8.31
2016-01-31T12:53:41.776Z,8.28
2016-01-31T12:54:41.748Z,8.27
2016-01-31T12:55:41.720Z,8.28
2016-01-31T12:56:41.689Z,8.28
2016-01-31T12:57:41.676Z,8.23
2016-01-31T12:58:41.648Z,8.16
2016-01-31T12:59:41.666Z,8.09
2016-01-31T13:00:41.590Z,8.05
2016-01-31T13:01:41.579Z,8.05
2016-01-31T13:02:41.538Z,8.03
2016-01-31T13:03:41.525Z,8.01
2016-01-31T13:04:41.497Z,8.06
2016-01-31T13:05:41.484Z,8.03
2016-01-31T13:06:41.456Z,8
2016-01-31T13:07:41.442Z,7.91
2016-01-31T13:08:41.414Z,8.03
2016-01-31T13:09:41.386Z,7.94
2016-01-31T13:10:41.357Z,7.98
2016-01-31T13:11:41.344Z,7.95
2016-01-31T13:12:41.316Z,7.94
2016-01-31T13:13:41.272Z,7.97
2016-01-31T13:14:41.258Z,7.93
2016-01-31T13:15:41.245Z,7.97
2016-01-31T13:16:41.217Z,7.9
2016-01-31T13:17:41.189Z,7.88
2016-01-31T13:18:41.199Z,7.95
2016-01-31T13:19:41.154Z,7.91
2016-01-31T13:20:41.128Z,7.91
2016-01-31T13:21:41.084Z,7.91